createdAt,value
2018-07-13T00:01:34.212Z,101407.92
2018-07-13T00:04:00.183Z,101412.09
2018-07-13T00:06:26.167Z,101415.05
2018-07-13T00:08:52.132Z,101410.72
2018-07-13T00:11:18.131Z,101412.40
2018-07-13T00:13:44.166Z,101416.27
2018-07-13T00:16:10.163Z,101415.52
2018-07-13T00:18:36.168Z,101417.16
2018-07-13T00:21:02.156Z,101417.16
2018-07-13T00:23:28.133Z,101418.34
2018-07-13T00:25:54.130Z,101423.14
2018-07-13T00:28:20.106Z,101421.95
2018-07-13T00:30:46.103Z,101425.30
2018-07-13T00:33:12.220Z,101426.18
2018-07-13T00:35:38.309Z,101417.16
2018-07-13T00:38:04.307Z,101423.14
2018-07-13T00:40:30.287Z,101418.34
2018-07-13T00:42:56.330Z,101423.40
2018-07-13T00:45:22.295Z,101423.45
2018-07-13T00:47:48.288Z,101425.41
2018-07-13T00:50:14.263Z,101423.45
2018-07-13T00:52:40.237Z,101432.34
2018-07-13T00:55:06.209Z,101427.19
2018-07-13T00:57:32.193Z,101423.40
2018-07-13T00:59:58.204Z,101430.58
2018-07-13T01:02:24.190Z,101441.33
2018-07-13T01:04:50.163Z,101434.69
2018-07-13T01:07:16.140Z,101434.06
2018-07-13T01:09:42.235Z,101440.00
2018-07-13T01:12:08.221Z,101442.27
2018-07-13T01:14:34.323Z,101437.79
2018-07-13T01:17:00.318Z,101439.17
2018-07-13T01:19:26.296Z,101431.05
2018-07-13T01:21:52.273Z,101434.50
2018-07-13T01:24:18.237Z,101438.48
2018-07-13T01:26:44.309Z,101430.97
2018-07-13T01:29:10.274Z,101443.40
2018-07-13T01:31:36.250Z,101445.41
2018-07-13T01:34:02.260Z,101444.22
2018-07-13T01:36:28.227Z,101443.67
2018-07-13T01:38:54.292Z,101445.36
2018-07-13T01:41:20.257Z,101449.22
2018-07-13T01:43:46.249Z,101450.02
2018-07-13T01:46:12.293Z,101445.22
2018-07-13T01:48:38.268Z,101450.85
2018-07-13T01:51:04.262Z,101448.06
2018-07-13T01:53:30.211Z,101448.89
2018-07-13T01:55:56.195Z,101453.50
2018-07-13T01:58:22.164Z,101450.36
2018-07-13T02:00:48.172Z,101451.35
2018-07-13T02:03:14.226Z,101455.66
2018-07-13T02:05:40.251Z,101453.75
2018-07-13T02:08:06.224Z,101448.31
2018-07-13T02:10:32.270Z,101455.77
2018-07-13T02:12:58.304Z,101454.83
2018-07-13T02:15:24.268Z,101457.88
2018-07-13T02:17:50.251Z,101457.62
2018-07-13T02:20:16.235Z,101455.91
2018-07-13T02:22:42.211Z,101451.48
2018-07-13T02:25:08.232Z,101453.05
2018-07-13T02:27:34.176Z,101455.70
2018-07-13T02:30:00.183Z,101455.57
2018-07-13T02:32:26.187Z,101453.75
2018-07-13T02:34:52.182Z,101452.48
2018-07-13T02:37:18.191Z,101449.91
2018-07-13T02:39:44.153Z,101455.41
2018-07-13T02:42:10.160Z,101458.55
2018-07-13T02:44:36.132Z,101468.27
2018-07-13T02:47:02.155Z,101467.31
2018-07-13T02:49:28.135Z,101471.55
2018-07-13T02:51:54.117Z,101465.98
2018-07-13T02:54:20.092Z,101464.48
2018-07-13T02:56:46.069Z,101464.02
2018-07-13T02:59:12.032Z,101469.02
2018-07-13T03:01:37.995Z,101468.66
2018-07-13T03:04:03.974Z,101469.72
2018-07-13T03:06:29.993Z,101473.14
2018-07-13T03:08:56.021Z,101474.43
2018-07-13T03:11:22.011Z,101478.52
2018-07-13T03:13:48.030Z,101481.89
2018-07-13T03:16:14.018Z,101485.14
2018-07-13T03:18:40.009Z,101492.13
2018-07-13T03:21:06.170Z,101489.48
2018-07-13T03:23:32.386Z,101489.54
2018-07-13T03:25:58.675Z,101491.26
2018-07-13T03:28:24.753Z,101490.23
2018-07-13T03:30:50.740Z,101498.63
2018-07-13T03:33:16.812Z,101499.72
2018-07-13T03:35:42.848Z,101488.36
2018-07-13T03:38:08.821Z,101497.70
2018-07-13T03:40:34.901Z,101499.39
2018-07-13T03:43:00.896Z,101497.20
2018-07-13T03:45:27.154Z,101502.10
2018-07-13T03:47:53.159Z,101501.37
2018-07-13T03:50:19.130Z,101497.78
2018-07-13T03:52:45.095Z,101497.26
2018-07-13T03:55:11.103Z,101497.20
2018-07-13T03:57:37.066Z,101496.51
2018-07-13T04:00:03.038Z,101496.51
2018-07-13T04:02:29.041Z,101494.52
2018-07-13T04:04:55.006Z,101507.28
2018-07-13T04:07:20.971Z,101504.43
2018-07-13T04:09:46.993Z,101509.23
2018-07-13T04:12:13.064Z,101504.43
2018-07-13T04:14:39.044Z,101506.45
2018-07-13T04:17:05.056Z,101502.50
2018-07-13T04:19:31.041Z,101503.50
2018-07-13T04:21:57.023Z,101498.83
2018-07-13T04:24:23.022Z,101506.64
2018-07-13T04:26:49.063Z,101508.43
2018-07-13T04:29:15.040Z,101501.47
2018-07-13T04:31:41.026Z,101498.95
2018-07-13T04:34:07.072Z,101493.72
2018-07-13T04:36:33.046Z,101499.72
2018-07-13T04:38:59.030Z,101502.10
2018-07-13T04:41:24.995Z,101497.30
2018-07-13T04:43:51.055Z,101492.00
2018-07-13T04:46:17.048Z,101499.12
2018-07-13T04:48:43.031Z,101490.17
2018-07-13T04:51:09.041Z,101498.76
2018-07-13T04:53:35.017Z,101496.66
2018-07-13T04:56:01.042Z,101498.13
2018-07-13T04:58:27.257Z,101498.82
2018-07-13T05:00:53.230Z,101500.97
2018-07-13T05:03:19.217Z,101497.43
2018-07-13T05:05:45.188Z,101496.66
2018-07-13T05:08:11.201Z,101501.77
2018-07-13T05:10:37.193Z,101499.84
2018-07-13T05:13:03.195Z,101503.30
2018-07-13T05:15:29.250Z,101498.39
2018-07-13T05:17:55.247Z,101498.06
2018-07-13T05:20:21.214Z,101500.78
2018-07-13T05:22:47.187Z,101502.04
2018-07-13T05:25:13.197Z,101505.78
2018-07-13T05:27:39.154Z,101502.94
2018-07-13T05:30:05.159Z,101511.38
2018-07-13T05:32:31.155Z,101513.41
2018-07-13T05:34:57.255Z,101514.73
2018-07-13T05:37:23.225Z,101511.08
2018-07-13T05:39:49.550Z,101517.18
2018-07-13T05:42:15.580Z,101517.18
2018-07-13T05:44:41.986Z,101513.70
2018-07-13T05:47:07.954Z,101515.03
2018-07-13T05:49:33.985Z,101519.41
2018-07-13T05:52:00.375Z,101520.92
2018-07-13T05:54:26.362Z,101519.04
2018-07-13T05:56:52.356Z,101518.20
2018-07-13T05:59:18.315Z,101522.55
2018-07-13T06:01:44.383Z,101518.17
2018-07-13T06:04:10.367Z,101516.84
2018-07-13T06:06:36.426Z,101521.16
2018-07-13T06:09:02.460Z,101518.17
2018-07-13T06:11:28.407Z,101520.92
2018-07-13T06:13:54.394Z,101520.56
2018-07-13T06:16:20.445Z,101520.09
2018-07-13T06:18:46.463Z,101519.09
2018-07-13T06:21:12.731Z,101528.37
2018-07-13T06:23:38.752Z,101522.38
2018-07-13T06:26:04.798Z,101529.57
2018-07-13T06:28:30.797Z,101524.30
2018-07-13T06:30:56.756Z,101524.16
2018-07-13T06:33:22.739Z,101531.13
2018-07-13T06:35:48.722Z,101531.42
2018-07-13T06:38:14.682Z,101524.66
2018-07-13T06:40:40.650Z,101532.42
2018-07-13T06:43:06.626Z,101526.68
2018-07-13T06:45:32.613Z,101528.64
2018-07-13T06:47:58.602Z,101534.64
2018-07-13T06:50:24.580Z,101533.25
2018-07-13T06:52:50.568Z,101537.58
2018-07-13T06:55:16.563Z,101535.99
2018-07-13T06:57:42.540Z,101532.13
2018-07-13T07:00:08.585Z,101533.58
2018-07-13T07:02:34.554Z,101541.64
2018-07-13T07:05:00.516Z,101535.07
2018-07-13T07:07:26.497Z,101541.66
2018-07-13T07:09:52.465Z,101540.92
2018-07-13T07:12:18.447Z,101537.91
2018-07-13T07:14:44.420Z,101540.12
2018-07-13T07:17:10.446Z,101537.19
2018-07-13T07:19:36.446Z,101541.16
2018-07-13T07:22:02.429Z,101542.30
2018-07-13T07:24:28.460Z,101535.03
2018-07-13T07:26:54.419Z,101532.41
2018-07-13T07:29:20.444Z,101532.19
2018-07-13T07:31:46.408Z,101536.36
2018-07-13T07:34:12.386Z,101537.52
2018-07-13T07:36:38.364Z,101541.47
2018-07-13T07:39:04.326Z,101536.19
2018-07-13T07:41:30.319Z,101534.30
2018-07-13T07:43:56.347Z,101537.00
2018-07-13T07:46:22.303Z,101532.66
2018-07-13T07:48:48.274Z,101537.25
2018-07-13T07:51:14.241Z,101534.86
2018-07-13T07:53:40.237Z,101532.52
2018-07-13T07:56:06.928Z,101533.70
2018-07-13T07:58:32.926Z,101529.17
2018-07-13T08:00:58.919Z,101530.23
2018-07-13T08:03:24.922Z,101529.56
2018-07-13T08:05:50.908Z,101530.50
2018-07-13T08:08:16.895Z,101532.14
2018-07-13T08:10:42.888Z,101530.25
2018-07-13T08:13:08.863Z,101530.31
2018-07-13T08:15:34.840Z,101532.41
2018-07-13T08:18:00.867Z,101534.81
2018-07-13T08:20:26.839Z,101527.16
2018-07-13T08:22:52.808Z,101527.47
2018-07-13T08:25:18.841Z,101528.98
2018-07-13T08:27:44.814Z,101527.97
2018-07-13T08:30:10.784Z,101523.62
2018-07-13T08:32:36.749Z,101527.97
2018-07-13T08:35:02.729Z,101526.27
2018-07-13T08:37:28.734Z,101534.73
2018-07-13T08:39:54.729Z,101523.98
2018-07-13T08:42:20.708Z,101523.74
2018-07-13T08:44:46.712Z,101526.34
2018-07-13T08:47:12.694Z,101528.75
2018-07-13T08:49:38.724Z,101520.03
2018-07-13T08:52:04.694Z,101524.38
2018-07-13T08:54:30.689Z,101528.87
2018-07-13T08:56:56.648Z,101521.66
2018-07-13T08:59:22.619Z,101519.07
2018-07-13T09:01:48.597Z,101524.59
2018-07-13T09:04:14.642Z,101521.53
2018-07-13T09:06:40.575Z,101523.55
2018-07-13T09:09:06.550Z,101523.23
2018-07-13T09:11:32.563Z,101527.49
2018-07-13T09:13:58.535Z,101524.84
2018-07-13T09:16:24.487Z,101532.92
2018-07-13T09:18:50.448Z,101530.09
2018-07-13T09:21:16.420Z,101524.77
2018-07-13T09:23:42.401Z,101521.56
2018-07-13T09:26:08.351Z,101528.98
2018-07-13T09:28:34.303Z,101520.92
2018-07-13T09:31:00.296Z,101519.91
2018-07-13T09:33:26.266Z,101518.96
2018-07-13T09:35:52.223Z,101525.84
2018-07-13T09:38:18.293Z,101527.75
2018-07-13T09:40:44.200Z,101517.64
2018-07-13T09:43:10.222Z,101520.59
2018-07-13T09:45:36.202Z,101522.80
2018-07-13T09:48:02.198Z,101526.09
2018-07-13T09:50:28.172Z,101525.73
2018-07-13T09:52:54.145Z,101519.79
2018-07-13T09:55:20.290Z,101523.83
2018-07-13T09:57:46.282Z,101520.98
2018-07-13T10:00:12.254Z,101525.34
2018-07-13T10:02:38.248Z,101521.67
2018-07-13T10:05:04.232Z,101519.73
2018-07-13T10:07:30.232Z,101523.72
2018-07-13T10:09:56.507Z,101526.28
2018-07-13T10:12:22.483Z,101520.81
2018-07-13T10:14:48.492Z,101523.27
2018-07-13T10:17:14.460Z,101526.34
2018-07-13T10:19:40.444Z,101528.14
2018-07-13T10:22:06.511Z,101517.30
2018-07-13T10:24:33.699Z,101514.66
2018-07-13T10:26:59.656Z,101519.84
2018-07-13T10:29:25.666Z,101522.00
2018-07-13T10:31:51.624Z,101518.02
2018-07-13T10:34:17.793Z,101514.05
2018-07-13T10:36:43.773Z,101517.28
2018-07-13T10:39:09.774Z,101522.83
2018-07-13T10:41:36.577Z,101513.91
2018-07-13T10:44:02.582Z,101526.92
2018-07-13T10:46:28.557Z,101520.98
2018-07-13T10:48:54.539Z,101515.81
2018-07-13T10:51:20.566Z,101516.64
2018-07-13T10:53:46.528Z,101519.66
2018-07-13T10:56:12.543Z,101515.27
2018-07-13T10:58:38.542Z,101517.16
2018-07-13T11:01:04.518Z,101513.35
2018-07-13T11:03:30.541Z,101510.31
2018-07-13T11:05:56.530Z,101506.09
2018-07-13T11:08:22.540Z,101500.00
2018-07-13T11:10:48.550Z,101499.84
2018-07-13T11:13:14.530Z,101500.64
2018-07-13T11:15:40.529Z,101505.31
2018-07-13T11:18:06.531Z,101495.34
2018-07-13T11:20:32.536Z,101498.13
2018-07-13T11:22:58.498Z,101503.30
2018-07-13T11:25:24.452Z,101494.20
2018-07-13T11:27:50.859Z,101491.69
2018-07-13T11:30:16.910Z,101480.44
2018-07-13T11:32:42.879Z,101485.44
2018-07-13T11:35:08.869Z,101483.59
2018-07-13T11:37:34.853Z,101485.94
2018-07-13T11:40:00.884Z,101476.45
2018-07-13T11:42:26.845Z,101476.02
2018-07-13T11:44:52.831Z,101480.77
2018-07-13T11:47:18.840Z,101475.13
2018-07-13T11:49:44.816Z,101477.20
2018-07-13T11:52:10.878Z,101465.54
2018-07-13T11:54:36.810Z,101468.38
2018-07-13T11:57:02.783Z,101463.24
2018-07-13T11:59:28.766Z,101467.86
2018-07-13T12:01:54.756Z,101470.33
2018-07-13T12:04:20.955Z,101460.54
2018-07-13T12:06:46.967Z,101457.75
2018-07-13T12:09:12.925Z,101455.61
2018-07-13T12:11:38.932Z,101449.62
2018-07-13T12:14:04.922Z,101443.72
2018-07-13T12:16:30.906Z,101440.70
2018-07-13T12:18:56.861Z,101438.75
2018-07-13T12:21:22.827Z,101437.04
2018-07-13T12:23:48.784Z,101434.58
2018-07-13T12:26:14.781Z,101432.11
2018-07-13T12:28:40.769Z,101422.14
2018-07-13T12:31:06.783Z,101423.52
2018-07-13T12:33:32.774Z,101428.94
2018-07-13T12:35:58.746Z,101423.96
2018-07-13T12:38:24.731Z,101434.38
2018-07-13T12:40:50.826Z,101428.12
2018-07-13T12:43:16.857Z,101423.46
2018-07-13T12:45:44.148Z,101429.44
2018-07-13T12:48:10.105Z,101428.44
2018-07-13T12:50:36.393Z,101425.21
2018-07-13T12:53:02.370Z,101433.48
2018-07-13T12:55:28.348Z,101429.45
2018-07-13T12:57:54.669Z,101422.80
2018-07-13T13:00:20.637Z,101415.73
2018-07-13T13:02:46.612Z,101421.33
2018-07-13T13:05:12.589Z,101424.88
2018-07-13T13:07:38.587Z,101426.90
2018-07-13T13:10:04.546Z,101418.06
2018-07-13T13:12:30.609Z,101421.19
2018-07-13T13:14:56.576Z,101420.59
2018-07-13T13:17:22.577Z,101418.20
2018-07-13T13:19:48.610Z,101419.03
2018-07-13T13:22:14.588Z,101409.73
2018-07-13T13:24:40.640Z,101410.57
2018-07-13T13:27:06.608Z,101412.07
2018-07-13T13:29:32.597Z,101410.98
2018-07-13T13:31:58.660Z,101409.24
2018-07-13T13:34:24.664Z,101403.11
2018-07-13T13:36:50.697Z,101406.95
2018-07-13T13:39:16.969Z,101416.28
2018-07-13T13:41:42.942Z,101409.42
2018-07-13T13:44:08.931Z,101402.28
2018-07-13T13:46:34.894Z,101397.84
2018-07-13T13:49:00.980Z,101402.97
2018-07-13T13:51:27.024Z,101403.66
2018-07-13T13:53:53.018Z,101404.44
2018-07-13T13:56:18.987Z,101399.95
2018-07-13T13:58:44.966Z,101400.81
2018-07-13T14:01:10.968Z,101405.77
2018-07-13T14:03:36.955Z,101396.34
2018-07-13T14:06:02.954Z,101395.46
2018-07-13T14:08:28.952Z,101384.84
2018-07-13T14:10:54.933Z,101385.36
2018-07-13T14:13:20.904Z,101384.03
2018-07-13T14:15:46.892Z,101379.08
2018-07-13T14:18:12.868Z,101380.41
2018-07-13T14:20:38.906Z,101380.55
2018-07-13T14:23:04.880Z,101379.41
2018-07-13T14:25:30.859Z,101376.62
2018-07-13T14:27:56.841Z,101367.78
2018-07-13T14:30:22.812Z,101371.77
2018-07-13T14:32:48.826Z,101372.95
2018-07-13T14:35:14.813Z,101375.11
2018-07-13T14:37:40.804Z,101370.81
2018-07-13T14:40:08.710Z,101370.13
2018-07-13T14:42:34.719Z,101370.62
2018-07-13T14:45:00.750Z,101373.42
2018-07-13T14:47:26.756Z,101368.47
2018-07-13T14:49:52.804Z,101368.59
2018-07-13T14:52:18.794Z,101367.92
2018-07-13T14:54:44.760Z,101359.64
2018-07-13T14:57:10.761Z,101365.13
2018-07-13T14:59:36.786Z,101360.33
2018-07-13T15:02:02.782Z,101355.03
2018-07-13T15:04:28.789Z,101355.25
2018-07-13T15:06:54.845Z,101354.56
2018-07-13T15:09:20.851Z,101362.89
2018-07-13T15:11:46.863Z,101357.54
2018-07-13T15:14:12.867Z,101350.08
2018-07-13T15:16:38.855Z,101359.55
2018-07-13T15:19:04.839Z,101354.38
2018-07-13T15:21:30.819Z,101352.23
2018-07-13T15:23:56.811Z,101354.84
2018-07-13T15:26:22.789Z,101349.54
2018-07-13T15:28:48.772Z,101341.94
2018-07-13T15:31:14.755Z,101355.23
2018-07-13T15:33:40.722Z,101351.66
2018-07-13T15:36:06.988Z,101345.35
2018-07-13T15:38:32.975Z,101349.77
2018-07-13T15:40:58.973Z,101345.78
2018-07-13T15:43:25.090Z,101351.98
2018-07-13T15:45:51.004Z,101352.77
2018-07-13T15:48:16.984Z,101351.48
2018-07-13T15:50:42.991Z,101350.30
2018-07-13T15:53:08.942Z,101352.60
2018-07-13T15:55:34.926Z,101351.27
2018-07-13T15:58:00.893Z,101344.95
2018-07-13T16:00:26.895Z,101341.80
2018-07-13T16:02:52.904Z,101341.38
2018-07-13T16:05:19.000Z,101346.54
2018-07-13T16:07:44.866Z,101334.84
2018-07-13T16:10:11.074Z,101335.16
2018-07-13T16:12:37.082Z,101336.49
2018-07-13T16:15:03.034Z,101337.89
2018-07-13T16:17:28.993Z,101327.38
2018-07-13T16:19:54.997Z,101334.46
2018-07-13T16:22:20.983Z,101334.73
2018-07-13T16:24:46.977Z,101337.03
2018-07-13T16:27:13.208Z,101340.65
2018-07-13T16:29:39.200Z,101342.81
2018-07-13T16:32:05.386Z,101335.56
2018-07-13T16:34:31.352Z,101339.55
2018-07-13T16:36:57.353Z,101333.05
2018-07-13T16:39:23.351Z,101332.13
2018-07-13T16:41:49.328Z,101325.45
2018-07-13T16:44:15.313Z,101319.06
2018-07-13T16:46:41.311Z,101318.81
2018-07-13T16:49:07.554Z,101315.16
2018-07-13T16:51:33.539Z,101314.44
2018-07-13T16:53:59.518Z,101316.27
2018-07-13T16:56:25.522Z,101314.62
2018-07-13T16:58:51.486Z,101317.48
2018-07-13T17:01:17.497Z,101317.77
2018-07-13T17:03:43.488Z,101313.71
2018-07-13T17:06:09.476Z,101315.45
2018-07-13T17:08:35.448Z,101312.47
2018-07-13T17:11:01.451Z,101314.95
2018-07-13T17:13:27.517Z,101312.68
2018-07-13T17:15:53.560Z,101307.66
2018-07-13T17:18:19.542Z,101308.20
2018-07-13T17:20:45.523Z,101312.50
2018-07-13T17:23:11.532Z,101315.66
2018-07-13T17:25:37.525Z,101313.62
2018-07-13T17:28:03.497Z,101311.97
2018-07-13T17:30:29.499Z,101313.83
2018-07-13T17:32:55.485Z,101311.35
2018-07-13T17:35:21.464Z,101314.87
2018-07-13T17:37:47.754Z,101313.36
2018-07-13T17:40:13.731Z,101309.95
2018-07-13T17:42:39.793Z,101306.16
2018-07-13T17:45:05.734Z,101309.70
2018-07-13T17:47:31.697Z,101302.35
2018-07-13T17:49:57.718Z,101302.53
2018-07-13T17:52:23.692Z,101301.06
2018-07-13T17:54:50.029Z,101304.50
2018-07-13T17:57:16.023Z,101302.42
2018-07-13T17:59:42.009Z,101307.38
2018-07-13T18:02:07.984Z,101300.23
2018-07-13T18:04:33.993Z,101303.07
2018-07-13T18:06:59.981Z,101304.83
2018-07-13T18:09:26.322Z,101301.75
2018-07-13T18:11:52.324Z,101297.27
2018-07-13T18:14:18.311Z,101295.55
2018-07-13T18:16:44.285Z,101297.95
2018-07-13T18:19:10.285Z,101292.78
2018-07-13T18:21:36.325Z,101295.89
2018-07-13T18:24:02.288Z,101301.42
2018-07-13T18:26:28.284Z,101296.54
2018-07-13T18:28:54.280Z,101295.89
2018-07-13T18:31:20.253Z,101296.69
2018-07-13T18:33:46.229Z,101295.87
2018-07-13T18:36:12.217Z,101296.33
2018-07-13T18:38:38.280Z,101303.11
2018-07-13T18:41:04.231Z,101303.97
2018-07-13T18:43:30.255Z,101299.45
2018-07-13T18:45:56.247Z,101304.73
2018-07-13T18:48:22.482Z,101304.25
2018-07-13T18:50:48.498Z,101300.59
2018-07-13T18:53:14.448Z,101301.31
2018-07-13T18:55:40.429Z,101303.97
2018-07-13T18:58:06.402Z,101305.41
2018-07-13T19:00:32.404Z,101307.27
2018-07-13T19:02:58.473Z,101311.40
2018-07-13T19:05:24.489Z,101310.57
2018-07-13T19:07:50.534Z,101322.73
2018-07-13T19:10:16.513Z,101315.27
2018-07-13T19:12:42.572Z,101314.48
2018-07-13T19:15:08.571Z,101316.42
2018-07-13T19:17:34.613Z,101319.50
2018-07-13T19:20:00.644Z,101317.53
2018-07-13T19:22:26.771Z,101327.19
2018-07-13T19:24:52.809Z,101324.89
2018-07-13T19:27:18.792Z,101324.89
2018-07-13T19:29:44.793Z,101326.03
2018-07-13T19:32:10.767Z,101321.15
2018-07-13T19:34:36.820Z,101323.62
2018-07-13T19:37:02.835Z,101325.85
2018-07-13T19:39:28.812Z,101330.84
2018-07-13T19:41:54.808Z,101339.73
2018-07-13T19:44:20.847Z,101335.56
2018-07-13T19:46:46.850Z,101346.18
2018-07-13T19:49:12.855Z,101347.19
2018-07-13T19:51:38.854Z,101342.81
2018-07-13T19:54:04.801Z,101347.80
2018-07-13T19:56:30.910Z,101349.12
2018-07-13T19:58:56.871Z,101353.93
2018-07-13T20:01:23.911Z,101357.16
2018-07-13T20:03:49.878Z,101351.34
2018-07-13T20:06:15.923Z,101363.58
2018-07-13T20:08:41.896Z,101362.19
2018-07-13T20:11:07.928Z,101360.14
2018-07-13T20:13:33.944Z,101360.96
2018-07-13T20:15:59.881Z,101361.39
2018-07-13T20:18:25.828Z,101365.05
2018-07-13T20:20:51.876Z,101362.61
2018-07-13T20:23:17.858Z,101359.64
2018-07-13T20:25:43.820Z,101363.22
2018-07-13T20:28:09.786Z,101366.50
2018-07-13T20:30:35.783Z,101362.63
2018-07-13T20:33:01.802Z,101368.41
2018-07-13T20:35:27.796Z,101368.59
2018-07-13T20:37:53.833Z,101372.22
2018-07-13T20:40:19.808Z,101374.38
2018-07-13T20:42:45.824Z,101377.70
2018-07-13T20:45:11.822Z,101381.37
2018-07-13T20:47:37.805Z,101378.07
2018-07-13T20:50:03.751Z,101375.87
2018-07-13T20:52:29.716Z,101379.99
2018-07-13T20:54:55.888Z,101376.02
2018-07-13T20:57:21.857Z,101382.37
2018-07-13T20:59:47.856Z,101381.05
2018-07-13T21:02:13.840Z,101379.03
2018-07-13T21:04:39.858Z,101381.55
2018-07-13T21:07:05.887Z,101376.30
2018-07-13T21:09:31.936Z,101381.52
2018-07-13T21:11:57.936Z,101384.27
2018-07-13T21:14:23.938Z,101384.95
2018-07-13T21:16:49.907Z,101383.52
2018-07-13T21:19:15.916Z,101382.70
2018-07-13T21:21:42.000Z,101385.72
2018-07-13T21:24:08.006Z,101387.00
2018-07-13T21:26:34.000Z,101384.84
2018-07-13T21:28:59.973Z,101383.63
2018-07-13T21:31:26.061Z,101388.42
2018-07-13T21:33:52.046Z,101389.93
2018-07-13T21:36:18.059Z,101392.04
2018-07-13T21:38:44.036Z,101395.32
2018-07-13T21:41:10.033Z,101385.36
2018-07-13T21:43:36.004Z,101397.28
2018-07-13T21:46:02.099Z,101395.05
2018-07-13T21:48:28.330Z,101392.54
2018-07-13T21:50:54.326Z,101397.61
2018-07-13T21:53:20.500Z,101398.22
2018-07-13T21:55:46.484Z,101391.17
2018-07-13T21:58:12.480Z,101398.56
2018-07-13T22:00:38.492Z,101391.35
2018-07-13T22:03:04.515Z,101385.41
2018-07-13T22:05:30.546Z,101387.56
2018-07-13T22:07:56.515Z,101386.55
2018-07-13T22:10:22.541Z,101382.65
2018-07-13T22:12:48.536Z,101382.69
2018-07-13T22:15:14.551Z,101387.31
2018-07-13T22:17:40.588Z,101380.87
2018-07-13T22:20:07.459Z,101386.17
2018-07-13T22:22:33.454Z,101385.78
2018-07-13T22:24:59.425Z,101397.60
2018-07-13T22:27:25.426Z,101398.70
2018-07-13T22:29:51.655Z,101396.91
2018-07-13T22:32:17.780Z,101403.05
2018-07-13T22:34:43.786Z,101407.55
2018-07-13T22:37:09.831Z,101400.44
2018-07-13T22:39:35.835Z,101412.70
2018-07-13T22:42:01.815Z,101409.54
2018-07-13T22:44:28.013Z,101407.22
2018-07-13T22:46:53.998Z,101406.03
2018-07-13T22:49:20.016Z,101406.48
2018-07-13T22:51:45.997Z,101407.08
2018-07-13T22:54:12.028Z,101410.70
2018-07-13T22:56:38.047Z,101411.57
2018-07-13T22:59:04.065Z,101413.84
2018-07-13T23:01:30.041Z,101411.64
2018-07-13T23:03:56.026Z,101411.64
2018-07-13T23:06:22.068Z,101410.95
2018-07-13T23:08:48.102Z,101409.98
2018-07-13T23:11:14.073Z,101406.88
2018-07-13T23:13:40.049Z,101403.37
2018-07-13T23:16:05.984Z,101396.10
2018-07-13T23:18:32.239Z,101395.73
2018-07-13T23:20:58.258Z,101395.60
2018-07-13T23:23:24.236Z,101400.89
2018-07-13T23:25:50.260Z,101391.94
2018-07-13T23:28:16.308Z,101400.70
2018-07-13T23:30:42.327Z,101398.70
2018-07-13T23:33:08.331Z,101390.92
2018-07-13T23:35:34.377Z,101399.52
2018-07-13T23:38:00.327Z,101399.20
2018-07-13T23:40:26.276Z,101396.74
2018-07-13T23:42:52.259Z,101398.06
2018-07-13T23:45:18.269Z,101401.91
2018-07-13T23:47:44.268Z,101403.23
2018-07-13T23:50:10.601Z,101396.27
2018-07-13T23:52:36.805Z,101395.87
2018-07-13T23:55:03.022Z,101396.53
2018-07-13T23:57:29.099Z,101393.34
2018-07-13T23:59:55.140Z,101389.91
